Time;durP1;ratioP1;P1;durP2;ratioP2;P2;SDS_P1;SDS_P2;PMS_P1;PMS_P2;Temp;Humidity;BMP_temperature;BMP_pressure;BME280_temperature;BME280_humidity;BME280_pressure;Samples;Min_cycle;Max_cycle;Signal;HPM_P1;HPM_P2
2022/08/24 00:01:09;;;;;;;3.20;1.50;;;19.70;99.90;;;;;;5056096;28;20227;-41
2022/08/24 00:03:36;;;;;;;3.43;1.43;;;19.60;99.90;;;;;;5056947;28;20192;-40
2022/08/24 00:06:03;;;;;;;3.73;1.90;;;19.60;99.90;;;;;;5056000;28;20706;-39
2022/08/24 00:08:29;;;;;;;3.67;1.37;;;19.50;99.90;;;;;;5055825;28;20180;-41
2022/08/24 00:10:54;;;;;;;4.40;1.43;;;19.50;99.90;;;;;;5055985;28;20270;-39
2022/08/24 00:13:20;;;;;;;4.43;1.80;;;19.50;99.90;;;;;;5037973;28;20222;-40
2022/08/24 00:15:46;;;;;;;1.87;1.50;;;19.40;99.90;;;;;;5055833;28;20259;-40
2022/08/24 00:18:12;;;;;;;4.20;1.40;;;19.50;99.90;;;;;;5055910;28;20203;-38
2022/08/24 00:20:38;;;;;;;2.00;1.33;;;19.30;99.90;;;;;;5055639;28;20199;-40
2022/08/24 00:23:04;;;;;;;3.40;1.90;;;19.40;99.90;;;;;;5055639;28;20249;-40
2022/08/24 00:25:30;;;;;;;2.40;1.43;;;19.30;99.90;;;;;;5056152;28;20184;-39
2022/08/24 00:27:57;;;;;;;2.57;1.60;;;19.30;99.90;;;;;;5055628;28;20604;-41
2022/08/24 00:30:23;;;;;;;2.73;1.60;;;19.30;99.90;;;;;;5055950;28;20239;-40
2022/08/24 00:32:49;;;;;;;2.93;1.70;;;19.20;99.90;;;;;;5055603;28;20237;-41
2022/08/24 00:35:19;;;;;;;6.57;1.77;;;19.20;99.90;;;;;;5055528;28;20640;-42
2022/08/24 00:37:47;;;;;;;3.03;1.60;;;19.10;99.90;;;;;;5055769;28;20161;-40
2022/08/24 00:40:25;;;;;;;4.70;1.50;;;19.10;99.90;;;;;;5055836;28;20637;-41
2022/08/24 00:42:51;;;;;;;2.70;1.63;;;19.10;99.90;;;;;;5037449;28;20628;-40
2022/08/24 00:45:19;;;;;;;3.53;1.30;;;19.10;99.90;;;;;;5055433;28;20267;-41
2022/08/24 00:48:00;;;;;;;2.83;1.53;;;19.00;99.90;;;;;;5055195;28;20636;-40
2022/08/24 00:50:34;;;;;;;1.60;1.27;;;19.00;99.90;;;;;;5055120;28;20192;-39
2022/08/24 00:53:05;;;;;;;3.70;1.70;;;19.00;99.90;;;;;;5055249;28;20161;-39
2022/08/24 00:55:42;;;;;;;2.10;1.50;;;18.90;99.90;;;;;;5055226;28;20161;-42
2022/08/24 00:58:14;;;;;;;1.87;1.40;;;19.00;99.90;;;;;;5055310;28;20240;-41
2022/08/24 01:00:45;;;;;;;1.57;1.40;;;18.90;99.90;;;;;;5055081;28;20211;-40
2022/08/24 01:03:12;;;;;;;3.87;1.70;;;18.90;99.90;;;;;;5055126;28;20177;-41
2022/08/24 01:05:38;;;;;;;3.33;1.50;;;18.80;99.90;;;;;;5054392;28;20180;-40
2022/08/24 01:08:07;;;;;;;5.67;1.87;;;18.80;99.90;;;;;;5054859;28;20191;-41
2022/08/24 01:10:38;;;;;;;2.07;1.60;;;18.80;99.90;;;;;;5054542;28;20208;-40
2022/08/24 01:13:06;;;;;;;4.50;1.60;;;18.70;99.90;;;;;;5055263;28;20541;-41
2022/08/24 01:15:36;;;;;;;5.10;1.83;;;18.70;99.90;;;;;;5056261;28;20259;-41
2022/08/24 01:19:03;;;;;;;2.73;1.50;;;18.70;99.90;;;;;;5054971;28;20260;-40
2022/08/24 01:21:23;;;;;;;3.67;1.70;;;18.60;99.90;;;;;;5037148;28;20774;-39
2022/08/24 01:24:01;;;;;;;3.47;1.97;;;18.60;99.90;;;;;;5054887;28;20180;-38
2022/08/24 01:26:44;;;;;;;1.77;1.50;;;18.50;99.90;;;;;;5054562;28;20687;-41
2022/08/24 01:29:14;;;;;;;2.63;1.67;;;18.50;99.90;;;;;;5054783;28;20160;-41
2022/08/24 01:31:40;;;;;;;2.40;1.90;;;18.50;99.90;;;;;;5054990;28;20208;-41
2022/08/24 01:34:05;;;;;;;1.90;1.57;;;18.50;99.90;;;;;;5054826;28;20230;-41
2022/08/24 01:36:33;;;;;;;2.37;1.70;;;18.50;99.90;;;;;;5054867;28;20176;-42
2022/08/24 01:39:12;;;;;;;3.33;1.73;;;18.40;99.90;;;;;;5054800;28;20628;-40
2022/08/24 01:41:37;;;;;;;4.53;1.83;;;18.40;99.90;;;;;;5054590;28;20211;-41
2022/08/24 01:44:04;;;;;;;3.27;1.80;;;18.40;99.90;;;;;;5054346;28;20176;-39
2022/08/24 01:46:30;;;;;;;3.97;1.90;;;18.40;99.90;;;;;;5054213;28;20184;-41
2022/08/24 01:48:57;;;;;;;3.77;1.73;;;18.30;99.90;;;;;;5054442;28;20652;-41
2022/08/24 01:51:23;;;;;;;4.17;1.93;;;18.20;99.90;;;;;;5054132;28;20219;-38
2022/08/24 01:53:49;;;;;;;2.27;1.63;;;18.20;99.90;;;;;;5054205;28;20177;-41
2022/08/24 01:56:15;;;;;;;1.97;1.50;;;18.20;99.90;;;;;;5053914;28;20175;-41
2022/08/24 01:58:46;;;;;;;4.30;2.00;;;18.10;99.90;;;;;;5054177;28;20180;-43
2022/08/24 02:01:16;;;;;;;4.90;2.17;;;18.10;99.90;;;;;;5036004;28;20204;-41
2022/08/24 02:03:42;;;;;;;2.67;1.83;;;18.10;99.90;;;;;;5054538;28;20165;-42
2022/08/24 02:06:08;;;;;;;2.03;1.73;;;18.00;99.90;;;;;;5054558;28;20184;-42
2022/08/24 02:08:35;;;;;;;2.20;1.80;;;18.00;99.90;;;;;;5053701;28;20194;-40
2022/08/24 02:11:05;;;;;;;2.07;1.70;;;18.00;99.90;;;;;;5053547;28;20216;-41
2022/08/24 02:13:31;;;;;;;4.30;1.80;;;18.00;99.90;;;;;;5054048;28;20200;-41
2022/08/24 02:15:57;;;;;;;3.37;1.80;;;17.90;99.90;;;;;;5053168;28;20176;-41
2022/08/24 02:18:23;;;;;;;2.43;1.80;;;17.90;99.90;;;;;;5053556;28;20259;-41
2022/08/24 02:20:49;;;;;;;2.20;2.00;;;17.90;99.90;;;;;;5054152;28;20231;-40
2022/08/24 02:23:15;;;;;;;2.40;1.80;;;17.80;99.90;;;;;;5035906;28;20177;-41
2022/08/24 02:25:40;;;;;;;2.60;2.07;;;17.80;99.90;;;;;;5053765;28;20188;-40
2022/08/24 02:28:06;;;;;;;3.40;1.93;;;17.80;99.90;;;;;;5053571;28;20597;-40
2022/08/24 02:30:32;;;;;;;3.30;2.13;;;17.80;99.90;;;;;;5053222;28;20341;-41
2022/08/24 02:32:59;;;;;;;3.27;1.77;;;17.80;99.90;;;;;;5053650;28;20187;-41
2022/08/24 02:35:26;;;;;;;2.77;1.60;;;17.80;99.90;;;;;;5053439;28;20211;-41
2022/08/24 02:37:51;;;;;;;3.93;1.63;;;17.80;99.90;;;;;;5053352;28;20176;-41
2022/08/24 02:40:17;;;;;;;3.20;2.10;;;17.70;99.90;;;;;;5053358;28;20172;-42
2022/08/24 02:42:43;;;;;;;2.43;1.90;;;17.70;99.90;;;;;;5053540;28;20211;-41
2022/08/24 02:45:09;;;;;;;3.27;1.63;;;17.70;99.90;;;;;;5053555;28;20532;-40
2022/08/24 02:47:35;;;;;;;4.10;1.93;;;17.70;99.90;;;;;;5053382;28;20648;-40
2022/08/24 02:50:03;;;;;;;2.67;1.93;;;17.60;99.90;;;;;;5053339;28;20583;-40
2022/08/24 02:52:28;;;;;;;2.73;2.07;;;17.60;99.90;;;;;;5053358;28;20274;-41
2022/08/24 02:54:54;;;;;;;4.43;2.20;;;17.60;99.90;;;;;;5053944;28;20648;-42
2022/08/24 02:57:20;;;;;;;7.80;2.20;;;17.50;99.90;;;;;;5053522;28;20266;-42
2022/08/24 02:59:46;;;;;;;4.93;2.50;;;17.50;99.90;;;;;;5035541;28;20215;-42
2022/08/24 03:02:11;;;;;;;2.40;1.80;;;17.50;99.90;;;;;;5053523;28;20275;-41
2022/08/24 03:04:37;;;;;;;2.23;1.80;;;17.40;99.90;;;;;;5053299;28;20226;-44
2022/08/24 03:07:03;;;;;;;3.77;1.70;;;17.40;99.90;;;;;;5053468;28;20554;-43
2022/08/24 03:09:29;;;;;;;3.20;1.90;;;17.40;99.90;;;;;;5053273;28;20207;-44
2022/08/24 03:11:55;;;;;;;3.63;2.00;;;17.40;99.90;;;;;;5053151;28;20207;-44
2022/08/24 03:14:20;;;;;;;3.83;1.50;;;17.40;99.90;;;;;;5053241;28;20184;-43
2022/08/24 03:16:46;;;;;;;5.33;1.90;;;17.30;99.90;;;;;;5054328;28;20172;-43
2022/08/24 03:19:14;;;;;;;3.00;1.70;;;17.30;99.90;;;;;;5054797;28;20180;-41
2022/08/24 03:21:40;;;;;;;2.43;1.70;;;17.30;99.90;;;;;;5053264;28;20218;-42
2022/08/24 03:24:06;;;;;;;3.17;1.77;;;17.30;99.90;;;;;;5052803;28;20184;-38
2022/08/24 03:26:32;;;;;;;4.60;2.03;;;17.20;99.90;;;;;;5034981;28;20191;-42
2022/08/24 03:28:58;;;;;;;5.17;1.90;;;17.20;99.90;;;;;;5055840;28;20176;-42
2022/08/24 03:31:23;;;;;;;4.13;2.00;;;17.20;99.90;;;;;;5056498;28;20222;-40
2022/08/24 03:33:49;;;;;;;2.70;1.80;;;17.20;99.90;;;;;;5056917;28;20183;-40
2022/08/24 03:36:15;;;;;;;4.17;2.03;;;17.10;99.90;;;;;;5056768;28;20708;-38
2022/08/24 03:38:41;;;;;;;2.27;1.77;;;17.10;99.90;;;;;;5056604;28;20241;-39
2022/08/24 03:41:07;;;;;;;3.60;1.77;;;17.10;99.90;;;;;;5056444;28;20687;-42
2022/08/24 03:43:45;;;;;;;3.47;1.90;;;17.10;99.90;;;;;;5056508;28;20230;-44
2022/08/24 03:46:11;;;;;;;3.33;2.23;;;17.10;99.90;;;;;;5056676;28;20270;-44
2022/08/24 03:48:39;;;;;;;2.27;2.07;;;17.00;99.90;;;;;;5056306;28;20211;-43
2022/08/24 03:51:06;;;;;;;4.47;2.10;;;17.00;99.90;;;;;;5056501;28;20208;-43
2022/08/24 03:53:32;;;;;;;3.93;1.97;;;17.00;99.90;;;;;;5056524;28;20241;-44
2022/08/24 03:55:58;;;;;;;3.77;2.13;;;17.00;99.90;;;;;;5056669;28;20184;-43
2022/08/24 03:58:24;;;;;;;2.10;1.90;;;17.00;99.90;;;;;;5056091;28;20180;-44
2022/08/24 04:00:49;;;;;;;3.43;1.87;;;17.00;99.90;;;;;;5056064;28;20200;-43
2022/08/24 04:03:15;;;;;;;2.20;1.77;;;16.90;99.90;;;;;;5056453;28;20266;-42
2022/08/24 04:05:41;;;;;;;3.60;2.17;;;16.90;99.90;;;;;;5056084;28;20645;-43
2022/08/24 04:08:07;;;;;;;2.63;2.10;;;16.90;99.90;;;;;;5056319;28;20192;-44
2022/08/24 04:10:34;;;;;;;5.83;2.67;;;16.80;99.90;;;;;;5055790;28;20240;-42
2022/08/24 04:13:00;;;;;;;3.37;2.23;;;16.90;99.90;;;;;;5055913;28;20181;-44
2022/08/24 04:15:26;;;;;;;3.90;2.10;;;16.90;99.90;;;;;;5037946;28;20180;-43
2022/08/24 04:17:52;;;;;;;4.40;2.00;;;16.80;99.90;;;;;;5055794;28;20168;-42
2022/08/24 04:20:18;;;;;;;5.90;2.03;;;16.80;99.90;;;;;;5055688;28;20688;-44
2022/08/24 04:22:44;;;;;;;5.40;2.30;;;16.70;99.90;;;;;;5055884;28;20190;-44
2022/08/24 04:25:11;;;;;;;4.03;2.27;;;16.70;99.90;;;;;;5055698;28;20188;-44
2022/08/24 04:27:39;;;;;;;2.53;2.10;;;16.70;99.90;;;;;;5055695;28;20184;-43
2022/08/24 04:30:06;;;;;;;2.33;1.80;;;16.70;99.90;;;;;;5055519;28;20176;-44
2022/08/24 04:32:31;;;;;;;1.90;1.80;;;16.70;99.90;;;;;;5055851;28;20617;-44
2022/08/24 04:34:58;;;;;;;2.83;2.37;;;16.70;99.90;;;;;;5055643;28;20168;-44
2022/08/24 04:37:24;;;;;;;3.67;2.60;;;16.60;99.90;;;;;;5055964;28;20564;-43
2022/08/24 04:39:49;;;;;;;6.70;2.40;;;16.60;99.90;;;;;;5036489;28;20676;-44
2022/08/24 04:42:16;;;;;;;2.37;1.93;;;16.60;99.90;;;;;;5055804;28;20235;-43
2022/08/24 04:44:42;;;;;;;2.27;1.80;;;16.60;99.90;;;;;;5055581;28;20191;-43
2022/08/24 04:47:08;;;;;;;3.33;2.23;;;16.60;99.90;;;;;;5056033;28;20177;-44
2022/08/24 04:49:34;;;;;;;2.50;1.93;;;16.50;99.90;;;;;;5055823;28;20321;-43
2022/08/24 04:52:00;;;;;;;4.10;2.00;;;16.50;99.90;;;;;;5037709;28;20212;-44
2022/08/24 04:54:26;;;;;;;2.17;1.97;;;16.50;99.90;;;;;;5055519;28;20177;-43
2022/08/24 04:56:52;;;;;;;3.67;2.03;;;16.50;99.90;;;;;;5055578;28;20257;-42
2022/08/24 04:59:17;;;;;;;4.97;1.73;;;16.50;99.90;;;;;;5057649;28;20178;-44
2022/08/24 05:01:43;;;;;;;5.90;2.30;;;16.50;99.90;;;;;;5059448;28;20210;-43
2022/08/24 05:04:10;;;;;;;4.70;2.00;;;16.50;99.90;;;;;;5058861;28;20243;-44
2022/08/24 05:06:36;;;;;;;3.40;2.03;;;16.50;99.90;;;;;;5055077;28;20211;-44
2022/08/24 05:09:03;;;;;;;2.27;2.00;;;16.50;99.90;;;;;;5055091;28;20215;-44
2022/08/24 05:11:29;;;;;;;2.90;2.10;;;16.50;99.90;;;;;;5055032;28;20291;-43
2022/08/24 05:13:56;;;;;;;3.87;2.40;;;16.50;99.90;;;;;;5055195;28;20180;-43
2022/08/24 05:16:23;;;;;;;6.17;2.17;;;16.50;99.90;;;;;;5054766;28;20179;-43
2022/08/24 05:18:49;;;;;;;5.53;2.23;;;16.50;99.90;;;;;;5054999;28;20184;-44
2022/08/24 05:21:18;;;;;;;4.33;2.37;;;16.50;99.90;;;;;;5054909;28;20257;-43
2022/08/24 05:23:44;;;;;;;2.90;2.20;;;16.50;99.90;;;;;;5036828;28;20227;-44
2022/08/24 05:26:16;;;;;;;4.10;2.50;;;16.60;99.90;;;;;;5054759;28;20184;-43
2022/08/24 05:28:42;;;;;;;2.47;2.27;;;16.60;99.90;;;;;;5036716;28;20168;-43
2022/08/24 05:31:14;;;;;;;8.77;2.17;;;16.60;99.90;;;;;;5054576;28;20302;-44
2022/08/24 05:33:40;;;;;;;4.17;2.50;;;16.60;99.90;;;;;;5055206;28;20184;-42
2022/08/24 05:36:18;;;;;;;5.60;2.20;;;16.70;99.90;;;;;;5054803;28;20191;-42
2022/08/24 05:38:44;;;;;;;3.77;2.60;;;16.70;99.90;;;;;;5054679;28;20211;-44
2022/08/24 05:41:10;;;;;;;4.23;2.77;;;16.80;99.90;;;;;;5054549;28;20675;-44
2022/08/24 05:43:35;;;;;;;4.10;2.57;;;16.80;99.90;;;;;;5054874;28;20268;-41
2022/08/24 05:46:01;;;;;;;4.00;2.90;;;16.80;99.90;;;;;;5054600;28;20542;-41
2022/08/24 05:48:26;;;;;;;4.57;2.87;;;17.00;99.90;;;;;;5054221;28;20233;-40
2022/08/24 05:50:56;;;;;;;9.83;3.73;;;17.00;99.90;;;;;;5053616;28;20234;-40
2022/08/24 05:53:23;;;;;;;6.87;3.10;;;17.10;99.90;;;;;;5054261;28;20180;-39
2022/08/24 05:55:49;;;;;;;3.53;3.23;;;17.10;99.90;;;;;;5054221;28;20176;-40
2022/08/24 05:58:14;;;;;;;7.37;3.10;;;17.20;99.90;;;;;;5054279;28;20269;-39
2022/08/24 06:00:40;;;;;;;3.83;3.03;;;17.20;99.90;;;;;;5054060;28;20751;-40
2022/08/24 06:03:07;;;;;;;4.37;3.33;;;17.30;99.90;;;;;;5054029;28;20180;-40
2022/08/24 06:05:32;;;;;;;3.83;3.43;;;17.40;99.90;;;;;;5054084;28;20550;-41
2022/08/24 06:07:59;;;;;;;5.43;3.67;;;17.50;99.90;;;;;;5054049;28;20180;-41
2022/08/24 06:10:25;;;;;;;4.93;3.97;;;17.50;99.90;;;;;;5053636;28;20586;-40
2022/08/24 06:12:51;;;;;;;9.63;3.97;;;17.70;99.90;;;;;;5053959;28;20180;-41
2022/08/24 06:15:16;;;;;;;6.87;4.20;;;17.70;99.90;;;;;;5054069;28;20181;-40
2022/08/24 06:17:43;;;;;;;5.03;4.10;;;17.80;99.90;;;;;;5054055;28;20640;-40
2022/08/24 06:20:09;;;;;;;7.63;4.63;;;17.90;99.90;;;;;;5054431;28;20168;-40
2022/08/24 06:22:35;;;;;;;8.33;5.03;;;18.00;99.90;;;;;;5054693;28;20211;-40
2022/08/24 06:27:45;;;;;;;7.67;4.90;;;18.20;99.90;;;;;;5053829;28;20643;-40
2022/08/24 06:30:11;;;;;;;8.00;5.60;;;18.40;99.90;;;;;;5053511;28;20184;-41
2022/08/24 06:32:37;;;;;;;7.20;5.50;;;18.50;99.90;;;;;;5053733;28;20203;-40
2022/08/24 06:35:04;;;;;;;12.50;5.80;;;18.70;99.90;;;;;;5053339;28;20255;-39
2022/08/24 06:37:29;;;;;;;7.23;6.00;;;18.80;99.90;;;;;;5053364;28;20169;-41
2022/08/24 06:39:56;;;;;;;7.87;5.87;;;19.00;99.90;;;;;;5053836;28;20191;-41
2022/08/24 06:42:25;;;;;;;11.07;7.43;;;19.10;99.90;;;;;;5035397;28;20207;-40
2022/08/24 06:44:51;;;;;;;10.83;7.00;;;19.30;99.90;;;;;;5053630;28;20184;-40
2022/08/24 06:47:17;;;;;;;12.10;7.23;;;19.40;99.90;;;;;;5053681;28;20184;-41
2022/08/24 06:49:43;;;;;;;10.13;7.60;;;19.60;99.90;;;;;;5053225;28;20658;-41
2022/08/24 06:52:10;;;;;;;8.97;6.67;;;19.70;99.90;;;;;;5053430;28;20216;-39
2022/08/24 06:54:37;;;;;;;9.97;6.87;;;19.80;99.90;;;;;;5053322;28;20176;-40
2022/08/24 06:57:03;;;;;;;12.03;6.40;;;19.80;99.90;;;;;;5053345;28;20607;-41
2022/08/24 06:59:30;;;;;;;11.30;7.03;;;20.00;99.90;;;;;;5053456;28;20176;-41
2022/08/24 07:01:55;;;;;;;9.23;7.90;;;20.20;99.90;;;;;;5053699;28;20397;-40
2022/08/24 07:04:22;;;;;;;14.53;10.17;;;20.40;99.90;;;;;;5057368;28;20290;-40
2022/08/24 07:06:49;;;;;;;14.23;11.20;;;20.60;99.90;;;;;;5057610;28;20263;-41
2022/08/24 07:09:15;;;;;;;17.37;13.00;;;20.80;99.90;;;;;;5057562;28;20281;-40
2022/08/24 07:11:41;;;;;;;24.57;16.97;;;21.00;99.90;;;;;;5057409;28;20258;-39
2022/08/24 07:14:07;;;;;;;16.97;13.57;;;21.10;99.90;;;;;;5057701;28;20172;-40
2022/08/24 07:16:33;;;;;;;16.13;11.40;;;21.40;99.90;;;;;;5057416;28;20176;-41
2022/08/24 07:19:00;;;;;;;11.60;10.30;;;21.60;99.90;;;;;;5039269;28;20176;-41
2022/08/24 07:21:27;;;;;;;12.17;9.57;;;21.80;99.90;;;;;;5057040;28;20192;-40
2022/08/24 07:23:58;;;;;;;11.53;9.67;;;21.80;99.90;;;;;;5057380;28;20180;-41
2022/08/24 07:26:27;;;;;;;9.23;8.23;;;21.80;99.90;;;;;;5057095;28;20206;-40
2022/08/24 07:29:00;;;;;;;12.50;7.87;;;21.90;99.90;;;;;;5057319;28;20260;-41
2022/08/24 07:31:25;;;;;;;14.00;7.67;;;22.00;99.90;;;;;;5056823;28;20699;-41
2022/08/24 07:33:51;;;;;;;12.17;8.17;;;22.20;99.90;;;;;;5057353;28;20177;-41
2022/08/24 07:36:18;;;;;;;15.33;8.27;;;22.50;99.90;;;;;;5056952;28;20172;-41
2022/08/24 07:38:44;;;;;;;12.90;7.97;;;22.80;99.90;;;;;;5056865;28;20549;-40
2022/08/24 07:41:09;;;;;;;10.83;7.50;;;23.10;99.90;;;;;;5056674;28;20209;-43
2022/08/24 07:43:35;;;;;;;10.70;6.50;;;23.30;99.90;;;;;;5056560;28;20773;-44
2022/08/24 07:46:02;;;;;;;9.30;6.60;;;23.60;99.90;;;;;;5039186;28;20569;-43
2022/08/24 07:48:28;;;;;;;10.43;6.80;;;23.60;99.90;;;;;;5056777;28;20557;-43
2022/08/24 07:50:54;;;;;;;11.13;6.50;;;23.80;99.90;;;;;;5056827;28;20212;-44
2022/08/24 07:53:19;;;;;;;10.67;5.97;;;24.00;99.90;;;;;;5056334;28;20705;-42
2022/08/24 07:55:54;;;;;;;9.53;5.87;;;24.20;99.90;;;;;;5056972;28;20691;-41
2022/08/24 07:58:19;;;;;;;10.67;6.10;;;24.30;99.90;;;;;;5056562;28;20563;-42
2022/08/24 08:00:46;;;;;;;19.10;5.70;;;24.50;99.90;;;;;;5056242;28;20198;-41
2022/08/24 08:03:12;;;;;;;9.47;5.23;;;24.50;99.90;;;;;;5056591;28;20176;-41
2022/08/24 08:05:39;;;;;;;10.70;5.37;;;24.60;99.90;;;;;;5038795;28;20183;-41
2022/08/24 08:08:05;;;;;;;14.70;6.10;;;24.80;99.90;;;;;;5056432;28;20219;-41
2022/08/24 08:10:34;;;;;;;10.70;5.10;;;24.80;99.90;;;;;;5055861;28;20243;-41
2022/08/24 08:13:03;;;;;;;11.07;4.53;;;25.00;99.90;;;;;;5056188;28;20255;-40
2022/08/24 08:15:29;;;;;;;11.03;5.27;;;25.10;99.90;;;;;;5056243;28;20183;-42
2022/08/24 08:17:55;;;;;;;10.00;4.07;;;25.30;99.90;;;;;;5056311;28;20283;-40
2022/08/24 08:20:21;;;;;;;7.23;4.77;;;25.50;99.90;;;;;;5038111;28;20656;-40
2022/08/24 08:25:30;;;;;;;9.77;4.50;;;25.70;99.90;;;;;;5055926;28;20160;-40
2022/08/24 08:27:56;;;;;;;8.93;4.27;;;25.80;99.90;;;;;;5056411;28;20177;-41
2022/08/24 08:30:22;;;;;;;7.37;3.80;;;25.90;99.90;;;;;;5055926;28;20226;-41
2022/08/24 08:32:48;;;;;;;6.57;3.87;;;26.00;99.90;;;;;;5056100;28;20176;-41
2022/08/24 08:35:13;;;;;;;6.83;3.90;;;26.30;99.90;;;;;;5058311;28;20184;-40
2022/08/24 08:37:39;;;;;;;7.87;3.80;;;26.50;99.90;;;;;;5056736;28;20225;-40
2022/08/24 08:40:11;;;;;;;8.73;3.70;;;26.70;99.90;;;;;;5057335;28;20230;-39
2022/08/24 08:43:18;;;;;;;7.30;3.43;;;26.80;99.90;;;;;;5056890;28;20335;-41
2022/08/24 08:45:50;;;;;;;6.70;3.50;;;27.00;99.90;;;;;;5044918;28;20211;-41
2022/08/24 08:48:34;;;;;;;8.10;3.87;;;27.30;99.90;;;;;;5055805;28;20173;-39
2022/08/24 08:51:05;;;;;;;8.03;3.30;;;27.30;99.90;;;;;;5037933;28;20590;-39
2022/08/24 08:54:09;;;;;;;12.07;3.60;;;27.40;99.90;;;;;;5055515;28;20267;-40
2022/08/24 08:57:07;;;;;;;9.83;3.50;;;27.40;99.90;;;;;;4974508;28;20174;-41
2022/08/24 09:00:02;;;;;;;12.60;3.90;;;27.40;99.90;;;;;;5055148;28;20218;-40
2022/08/24 09:02:58;;;;;;;8.23;3.73;;;27.40;99.90;;;;;;5055085;28;20195;-42
2022/08/24 09:05:46;;;;;;;8.93;3.63;;;27.40;99.90;;;;;;5055670;28;20168;-42
2022/08/24 09:08:16;;;;;;;6.60;3.30;;;27.60;99.90;;;;;;5055001;28;20164;-39
2022/08/24 09:11:01;;;;;;;6.00;3.20;;;27.80;99.90;;;;;;5055774;28;20345;-39
2022/08/24 09:13:42;;;;;;;5.87;3.67;;;27.90;99.90;;;;;;5055312;28;20195;-40
2022/08/24 09:16:23;;;;;;;8.07;3.20;;;28.00;99.90;;;;;;5054865;28;20182;-41
2022/08/24 09:19:01;;;;;;;11.20;3.30;;;28.10;99.90;;;;;;5055226;28;20171;-41
2022/08/24 09:22:02;;;;;;;5.70;3.20;;;28.20;99.90;;;;;;5054945;28;20199;-40
2022/08/24 09:24:52;;;;;;;8.67;3.13;;;28.20;99.90;;;;;;5054757;28;20180;-42
2022/08/24 09:27:41;;;;;;;13.33;3.47;;;28.30;99.90;;;;;;5054109;28;20177;-41
2022/08/24 09:30:17;;;;;;;12.63;2.73;;;28.30;99.90;;;;;;5054760;28;20694;-41
2022/08/24 09:33:25;;;;;;;12.43;2.80;;;28.30;99.90;;;;;;5054825;28;20179;-41
2022/08/24 09:36:05;;;;;;;8.73;2.30;;;28.30;99.90;;;;;;4973768;28;20679;-41
2022/08/24 09:39:00;;;;;;;8.47;2.50;;;28.30;99.90;;;;;;5032085;28;20192;-41
2022/08/24 09:41:28;;;;;;;8.87;2.90;;;28.30;99.90;;;;;;5054552;28;20561;-39
2022/08/24 09:44:06;;;;;;;12.97;2.20;;;28.50;99.90;;;;;;5036414;28;20180;-41
2022/08/24 09:46:37;;;;;;;5.57;2.33;;;28.60;99.90;;;;;;5054683;28;20187;-40
2022/08/24 09:49:40;;;;;;;8.17;2.67;;;28.70;99.90;;;;;;5054231;28;20168;-39
2022/08/24 09:52:33;;;;;;;6.67;2.50;;;28.70;99.90;;;;;;5036305;28;20212;-39
2022/08/24 09:55:26;;;;;;;5.67;2.07;;;28.80;99.90;;;;;;5054290;28;20199;-42
2022/08/24 09:58:41;;;;;;;12.17;2.60;;;28.80;99.90;;;;;;5054442;28;20152;-40
2022/08/24 10:01:19;;;;;;;13.10;2.53;;;28.90;99.90;;;;;;5036457;28;20208;-41
2022/08/24 10:04:07;;;;;;;12.10;2.80;;;28.90;99.90;;;;;;5053942;28;20180;-39
2022/08/24 10:07:10;;;;;;;9.10;2.60;;;28.90;99.90;;;;;;5054329;28;20175;-40
2022/08/24 10:10:01;;;;;;;7.23;2.23;;;28.80;99.90;;;;;;5053528;28;20202;-42
2022/08/24 10:12:43;;;;;;;8.33;2.67;;;28.80;99.90;;;;;;5054303;28;20212;-41
2022/08/24 10:15:55;;;;;;;13.70;2.83;;;28.90;99.90;;;;;;5053795;28;20165;-41
2022/08/24 10:18:29;;;;;;;13.17;2.90;;;28.80;99.90;;;;;;4982490;28;20195;-41
2022/08/24 10:21:18;;;;;;;14.97;3.57;;;29.00;99.90;;;;;;5053515;28;20222;-41
2022/08/24 10:23:52;;;;;;;13.23;2.67;;;29.10;99.90;;;;;;5035896;28;20180;-41
2022/08/24 10:26:32;;;;;;;4.93;2.28;;;29.30;99.90;;;;;;5053991;28;20502;-40
2022/08/24 10:29:21;;;;;;;8.02;2.22;;;29.30;99.90;;;;;;5053640;28;20190;-41
2022/08/24 10:32:02;;;;;;;6.82;1.90;;;29.40;99.90;;;;;;5054302;28;20216;-41
2022/08/24 10:34:36;;;;;;;2.78;1.70;;;29.50;99.90;;;;;;5054944;28;20161;-45
2022/08/24 10:37:38;;;;;;;5.05;1.70;;;29.60;99.90;;;;;;5055313;28;20233;-45
2022/08/24 10:40:33;;;;;;;8.90;1.80;;;29.80;99.90;;;;;;5055725;28;20214;-46
2022/08/24 10:46:17;;;;;;;3.35;1.92;;;30.00;99.90;;;;;;5055034;28;20171;-46
2022/08/24 10:49:16;;;;;;;7.70;1.60;;;30.00;99.90;;;;;;5054827;28;20188;-46
2022/08/24 10:52:07;;;;;;;3.65;1.73;;;30.20;99.90;;;;;;5054711;28;20738;-46
2022/08/24 10:54:34;;;;;;;12.20;2.00;;;30.50;99.90;;;;;;5054685;28;20195;-46
2022/08/24 10:57:15;;;;;;;5.10;1.65;;;30.60;99.90;;;;;;5054850;28;20184;-45
2022/08/24 11:00:13;;;;;;;11.80;2.03;;;30.80;99.90;;;;;;5037085;28;20230;-45
2022/08/24 11:02:42;;;;;;;5.30;1.75;;;31.00;99.90;;;;;;5055942;28;20329;-46
2022/08/24 11:05:11;;;;;;;4.95;1.95;;;31.20;99.90;;;;;;5055414;28;20172;-45
2022/08/24 11:07:54;;;;;;;5.32;1.65;;;31.20;99.60;;;;;;5055081;28;20621;-47
2022/08/24 11:10:25;;;;;;;7.72;1.83;;;31.40;99.90;;;;;;5055025;28;20196;-46
2022/08/24 11:12:51;;;;;;;6.13;2.33;;;31.40;98.50;;;;;;5056352;28;20242;-45
2022/08/24 11:15:16;;;;;;;6.55;1.63;;;31.40;98.30;;;;;;5056602;28;20173;-46
2022/08/24 11:17:54;;;;;;;4.53;1.55;;;31.40;96.30;;;;;;5057226;28;20176;-45
2022/08/24 11:20:30;;;;;;;7.93;1.80;;;31.30;96.40;;;;;;5057321;28;20244;-46
2022/08/24 11:23:09;;;;;;;5.78;1.50;;;31.20;97.10;;;;;;5054646;28;20168;-41
2022/08/24 11:25:37;;;;;;;7.03;2.17;;;31.20;97.10;;;;;;5053223;28;20176;-39
2022/08/24 11:28:24;;;;;;;2.80;1.60;;;31.30;97.40;;;;;;5035369;28;20184;-42
2022/08/24 11:30:50;;;;;;;4.50;1.98;;;31.40;96.80;;;;;;5053280;28;20216;-41
2022/08/24 11:33:46;;;;;;;2.03;1.30;;;31.50;96.20;;;;;;5052940;28;20543;-40
2022/08/24 11:36:18;;;;;;;4.10;1.85;;;31.50;95.80;;;;;;5052818;28;20169;-42
2022/08/24 11:38:46;;;;;;;4.70;1.90;;;31.60;95.90;;;;;;5053246;28;20234;-41
2022/08/24 11:41:27;;;;;;;4.03;1.52;;;31.70;95.00;;;;;;5052979;28;20286;-42
2022/08/24 11:43:59;;;;;;;9.38;1.90;;;31.80;95.30;;;;;;5052748;28;20173;-42
2022/08/24 11:46:47;;;;;;;6.82;2.35;;;31.80;95.40;;;;;;5053076;28;20169;-41
2022/08/24 11:49:59;;;;;;;2.22;1.60;;;31.70;93.50;;;;;;5054000;28;20259;-41
2022/08/24 11:52:35;;;;;;;12.73;3.05;;;31.60;94.60;;;;;;5056661;28;20214;-41
2022/08/24 11:55:18;;;;;;;4.18;1.77;;;31.50;94.30;;;;;;5056365;28;20532;-42
2022/08/24 11:58:23;;;;;;;5.50;1.50;;;31.50;95.80;;;;;;5056658;28;20613;-42
2022/08/24 12:00:58;;;;;;;5.43;1.75;;;31.50;94.90;;;;;;5012323;28;20208;-40
2022/08/24 12:03:29;;;;;;;6.13;1.52;;;31.50;94.70;;;;;;5056585;28;20160;-42
2022/08/24 12:06:05;;;;;;;4.93;1.92;;;31.60;94.60;;;;;;5056160;28;20180;-41
2022/08/24 12:09:02;;;;;;;6.68;2.13;;;31.80;94.00;;;;;;5055881;28;20200;-41
2022/08/24 12:11:43;;;;;;;5.35;1.98;;;32.00;93.50;;;;;;5049432;28;20228;-39
2022/08/24 12:14:32;;;;;;;5.00;2.28;;;32.00;93.30;;;;;;5056465;28;20172;-41
2022/08/24 12:17:29;;;;;;;3.08;1.60;;;32.20;92.40;;;;;;5056245;28;20529;-42
2022/08/24 12:20:00;;;;;;;4.85;1.73;;;32.20;94.60;;;;;;5056445;28;20531;-41
2022/08/24 12:22:27;;;;;;;2.67;1.60;;;32.60;96.00;;;;;;5038391;28;20192;-40
2022/08/24 12:25:00;;;;;;;5.57;1.95;;;32.80;95.40;;;;;;5056680;28;20531;-38
2022/08/24 12:27:34;;;;;;;8.45;2.03;;;33.10;94.60;;;;;;5038260;28;20306;-41
2022/08/24 12:30:05;;;;;;;3.22;1.88;;;33.10;90.90;;;;;;5039210;28;20263;-45
2022/08/24 12:32:58;;;;;;;6.10;1.98;;;33.00;91.30;;;;;;5057280;28;20212;-45
2022/08/24 12:35:32;;;;;;;7.65;2.00;;;32.80;91.10;;;;;;5057501;28;20160;-44
2022/08/24 12:38:14;;;;;;;7.28;1.73;;;32.70;90.30;;;;;;5057503;28;20569;-45
2022/08/24 12:40:48;;;;;;;4.22;2.40;;;32.60;90.70;;;;;;5057549;28;20278;-47
2022/08/24 12:43:38;;;;;;;6.55;2.20;;;32.50;91.10;;;;;;5039693;28;20172;-45
2022/08/24 12:46:05;;;;;;;8.80;2.20;;;32.40;91.00;;;;;;5058045;28;20168;-43
2022/08/24 12:48:38;;;;;;;4.85;1.90;;;32.40;89.90;;;;;;5057766;28;20524;-44
2022/08/24 12:51:41;;;;;;;9.30;1.90;;;32.30;90.60;;;;;;5057235;28;20291;-45
2022/08/24 12:54:39;;;;;;;4.60;2.03;;;32.40;91.30;;;;;;5056055;28;20226;-40
2022/08/24 12:57:18;;;;;;;5.32;1.90;;;32.50;90.00;;;;;;5055872;28;20246;-40
2022/08/24 12:59:51;;;;;;;3.90;1.88;;;32.50;90.30;;;;;;5055111;28;20226;-39
2022/08/24 13:02:17;;;;;;;2.40;2.00;;;32.60;90.60;;;;;;5054629;28;20192;-42
2022/08/24 13:04:48;;;;;;;4.30;1.83;;;32.70;92.90;;;;;;5037351;28;20275;-41
2022/08/24 13:07:17;;;;;;;9.60;2.03;;;32.80;91.70;;;;;;5055340;28;20185;-42
2022/08/24 13:09:52;;;;;;;3.58;2.25;;;33.00;92.90;;;;;;5055087;28;20196;-45
2022/08/24 13:12:40;;;;;;;4.72;1.90;;;33.20;91.80;;;;;;5054822;28;20632;-44
2022/08/24 13:15:30;;;;;;;3.45;2.70;;;33.20;91.30;;;;;;5054881;28;20540;-43
2022/08/24 13:18:07;;;;;;;7.07;1.95;;;33.10;90.00;;;;;;5055144;28;20605;-44
2022/08/24 13:20:35;;;;;;;2.92;1.70;;;33.00;92.30;;;;;;5054688;28;20176;-43